Time;durP1;ratioP1;P1;durP2;ratioP2;P2;SDS_P1;SDS_P2;PMS_P1;PMS_P2;Temp;Humidity;BMP_temperature;BMP_pressure;BME280_temperature;BME280_humidity;BME280_pressure;Samples;Min_cycle;Max_cycle;Signal;HPM_P1;HPM_P2
2021/12/28 00:00:59;;;;;;;6.90;3.17;;;11.50;1.00;;;;;;5072331;28;20206;-81
2021/12/28 00:03:26;;;;;;;15.30;5.90;;;11.50;1.00;;;;;;5072726;28;20666;-80
2021/12/28 00:05:53;;;;;;;9.45;4.97;;;11.50;1.00;;;;;;5072169;28;20621;-79
2021/12/28 00:08:20;;;;;;;11.57;4.35;;;11.50;1.00;;;;;;5072682;28;20207;-77
2021/12/28 00:10:47;;;;;;;10.02;4.20;;;11.50;1.00;;;;;;5071911;28;20259;-78
2021/12/28 00:13:15;;;;;;;10.67;4.10;;;11.50;1.00;;;;;;5072473;28;20717;-77
2021/12/28 00:15:50;;;;;;;8.37;4.20;;;11.50;1.00;;;;;;5072049;28;20198;-77
2021/12/28 00:18:18;;;;;;;6.15;4.10;;;11.40;1.00;;;;;;5072402;28;20289;-78
2021/12/28 00:20:47;;;;;;;12.27;4.57;;;11.40;1.00;;;;;;5072068;28;20198;-77
2021/12/28 00:23:18;;;;;;;9.48;5.47;;;11.30;1.00;;;;;;5072425;28;20214;-77
2021/12/28 00:25:46;;;;;;;14.70;4.50;;;11.30;1.00;;;;;;5071559;28;20237;-78
2021/12/28 00:28:14;;;;;;;12.03;4.90;;;11.20;1.00;;;;;;5072283;28;20580;-78
2021/12/28 00:30:41;;;;;;;11.93;4.97;;;11.10;1.00;;;;;;5071783;28;20214;-77
2021/12/28 00:33:10;;;;;;;10.73;5.40;;;11.00;1.00;;;;;;5072469;28;20490;-78
2021/12/28 00:35:39;;;;;;;12.43;4.97;;;11.00;1.00;;;;;;5072193;28;20210;-78
2021/12/28 00:38:08;;;;;;;12.77;5.40;;;11.10;1.00;;;;;;5072062;28;20236;-77
2021/12/28 00:40:36;;;;;;;11.40;4.53;;;11.10;1.00;;;;;;5072129;28;20206;-77
2021/12/28 00:43:04;;;;;;;9.30;5.17;;;11.20;1.00;;;;;;5071206;28;20202;-77
2021/12/28 00:45:31;;;;;;;10.73;4.67;;;11.20;1.00;;;;;;5072030;28;20256;-77
2021/12/28 00:47:59;;;;;;;11.47;4.07;;;11.10;1.00;;;;;;5071311;28;20275;-78
2021/12/28 00:50:29;;;;;;;6.30;3.67;;;11.10;1.00;;;;;;5071831;28;20255;-78
2021/12/28 00:52:56;;;;;;;11.17;5.27;;;11.10;1.00;;;;;;5071341;28;20291;-76
2021/12/28 00:55:24;;;;;;;11.83;4.53;;;11.20;1.00;;;;;;5071243;28;20255;-79
2021/12/28 00:57:52;;;;;;;9.60;4.63;;;11.10;1.00;;;;;;5071661;28;20210;-82
2021/12/28 01:00:22;;;;;;;8.83;5.07;;;11.00;1.00;;;;;;5072071;28;20210;-82
2021/12/28 01:02:50;;;;;;;7.37;4.17;;;10.90;1.00;;;;;;5071736;28;20259;-83
2021/12/28 01:05:17;;;;;;;13.80;5.60;;;10.90;1.00;;;;;;5071756;28;20289;-81
2021/12/28 01:07:45;;;;;;;9.97;5.23;;;11.00;1.00;;;;;;5071004;28;20209;-78
2021/12/28 01:10:15;;;;;;;12.80;6.13;;;11.00;1.00;;;;;;5071475;28;20674;-82
2021/12/28 01:12:43;;;;;;;12.37;6.83;;;11.00;1.00;;;;;;5070741;28;20234;-79
2021/12/28 01:15:11;;;;;;;10.73;5.83;;;10.90;1.00;;;;;;5076312;28;20262;-76
2021/12/28 01:17:39;;;;;;;14.67;6.77;;;10.90;1.00;;;;;;5071739;28;20252;-79
2021/12/28 01:20:10;;;;;;;20.50;6.13;;;10.90;1.00;;;;;;5071657;28;20256;-80
2021/12/28 01:22:37;;;;;;;13.83;5.80;;;11.00;1.00;;;;;;5071548;28;20209;-82
2021/12/28 01:25:08;;;;;;;11.85;4.72;;;11.00;1.00;;;;;;5071566;28;20673;-78
2021/12/28 01:27:35;;;;;;;15.30;7.83;;;11.10;1.00;;;;;;5071815;28;20259;-80
2021/12/28 01:30:04;;;;;;;8.70;6.50;;;11.10;1.00;;;;;;5070998;28;20218;-82
2021/12/28 01:32:31;;;;;;;10.13;6.17;;;11.10;1.00;;;;;;5071510;28;20245;-85
2021/12/28 01:35:00;;;;;;;11.77;6.27;;;11.10;1.00;;;;;;5071472;28;20210;-85
2021/12/28 01:37:27;;;;;;;13.23;7.03;;;11.10;1.00;;;;;;5071345;28;20354;-76
2021/12/28 01:39:54;;;;;;;12.27;5.38;;;11.10;1.00;;;;;;5070616;28;20202;-76
2021/12/28 01:42:22;;;;;;;17.17;5.22;;;11.10;1.00;;;;;;5071009;28;20209;-78
2021/12/28 01:44:49;;;;;;;10.27;5.05;;;11.10;1.00;;;;;;5070667;28;20738;-79
2021/12/28 01:47:17;;;;;;;13.43;4.87;;;11.10;1.00;;;;;;5070968;28;20626;-78
2021/12/28 01:49:44;;;;;;;11.83;4.73;;;11.00;1.00;;;;;;5070471;28;20213;-81
2021/12/28 01:52:11;;;;;;;8.57;4.63;;;10.90;1.00;;;;;;5070784;28;20229;-77
2021/12/28 01:54:38;;;;;;;10.03;5.20;;;10.90;1.00;;;;;;5082146;28;20210;-75
2021/12/28 01:57:06;;;;;;;11.47;5.17;;;11.00;1.00;;;;;;5090467;28;20665;-75
2021/12/28 01:59:34;;;;;;;9.50;4.55;;;11.00;1.00;;;;;;5070628;28;20206;-75
2021/12/28 02:02:01;;;;;;;10.93;5.65;;;11.00;1.00;;;;;;5070416;28;20545;-76
2021/12/28 02:04:30;;;;;;;9.30;4.63;;;11.10;1.00;;;;;;5070679;28;20206;-75
2021/12/28 02:06:58;;;;;;;11.43;4.70;;;11.00;1.00;;;;;;5088703;28;20266;-78
2021/12/28 02:09:25;;;;;;;9.13;4.97;;;11.00;1.00;;;;;;5091064;28;20202;-78
2021/12/28 02:11:53;;;;;;;10.17;5.07;;;10.90;1.00;;;;;;5090351;28;20266;-77
2021/12/28 02:14:21;;;;;;;10.47;5.00;;;11.00;1.00;;;;;;5090923;28;20664;-78
2021/12/28 02:16:50;;;;;;;6.77;5.00;;;11.10;1.00;;;;;;5092059;28;20236;-78
2021/12/28 02:19:18;;;;;;;10.93;5.13;;;11.10;1.00;;;;;;5094894;28;20660;-79
2021/12/28 02:21:47;;;;;;;7.10;4.83;;;11.10;1.00;;;;;;5094217;28;20258;-79
2021/12/28 02:24:14;;;;;;;9.37;4.80;;;11.10;1.00;;;;;;5077268;28;20214;-77
2021/12/28 02:26:41;;;;;;;8.30;4.40;;;11.10;1.00;;;;;;5074549;28;20209;-79
2021/12/28 02:29:08;;;;;;;8.83;4.23;;;11.20;1.00;;;;;;5074607;28;20202;-79
2021/12/28 02:31:35;;;;;;;10.60;4.60;;;11.10;1.00;;;;;;5075008;28;20268;-79
2021/12/28 02:34:03;;;;;;;12.23;4.70;;;11.20;1.00;;;;;;5073987;28;20233;-80
2021/12/28 02:36:30;;;;;;;9.10;4.03;;;11.20;1.00;;;;;;5073968;28;20205;-81
2021/12/28 02:38:59;;;;;;;6.47;4.03;;;11.10;1.00;;;;;;5073904;28;20665;-79
2021/12/28 02:41:26;;;;;;;9.50;5.83;;;11.10;1.00;;;;;;5074352;28;20255;-77
2021/12/28 02:44:00;;;;;;;7.90;4.00;;;11.10;1.00;;;;;;5073793;28;20214;-79
2021/12/28 02:46:27;;;;;;;8.07;3.60;;;11.10;1.00;;;;;;5074189;28;20263;-76
2021/12/28 02:48:54;;;;;;;5.93;3.67;;;11.10;1.00;;;;;;5073870;28;20260;-77
2021/12/28 02:51:21;;;;;;;10.70;5.37;;;11.20;1.00;;;;;;5073944;28;20202;-78
2021/12/28 02:53:48;;;;;;;5.87;3.50;;;11.20;1.00;;;;;;5073610;28;20234;-78
2021/12/28 02:56:18;;;;;;;7.53;3.33;;;11.30;1.00;;;;;;5073954;28;20199;-77
2021/12/28 02:58:47;;;;;;;8.93;3.47;;;11.30;1.00;;;;;;5073544;28;20206;-81
2021/12/28 03:01:19;;;;;;;9.37;3.60;;;11.30;1.00;;;;;;5073975;28;20557;-78
2021/12/28 03:03:46;;;;;;;7.23;4.43;;;11.40;1.00;;;;;;5073470;28;20291;-76
2021/12/28 03:06:15;;;;;;;5.33;3.13;;;11.40;1.00;;;;;;5073829;28;20202;-79
2021/12/28 03:08:45;;;;;;;7.30;3.70;;;11.40;1.00;;;;;;5073574;28;20210;-78
2021/12/28 03:11:14;;;;;;;8.83;3.13;;;11.40;1.00;;;;;;5073821;28;20635;-79
2021/12/28 03:13:44;;;;;;;8.07;4.07;;;11.40;1.00;;;;;;5073742;28;20259;-78
2021/12/28 03:16:13;;;;;;;9.50;4.50;;;11.40;1.00;;;;;;5073531;28;20263;-78
2021/12/28 03:18:40;;;;;;;6.13;3.90;;;11.40;1.00;;;;;;5073428;28;20202;-77
2021/12/28 03:21:09;;;;;;;8.00;3.33;;;11.50;1.00;;;;;;5073783;28;20731;-78
2021/12/28 03:23:37;;;;;;;7.63;3.70;;;11.50;1.00;;;;;;5073853;28;20255;-78
2021/12/28 03:26:05;;;;;;;6.75;3.50;;;11.50;1.00;;;;;;5073574;28;20213;-77
2021/12/28 03:28:35;;;;;;;6.80;4.03;;;11.40;1.00;;;;;;5072189;28;20666;-77
2021/12/28 03:31:05;;;;;;;6.50;3.83;;;11.40;1.00;;;;;;5072833;28;20218;-78
2021/12/28 03:33:35;;;;;;;5.77;3.53;;;11.40;1.00;;;;;;5073385;28;20279;-81
2021/12/28 03:36:02;;;;;;;6.47;3.47;;;11.40;1.00;;;;;;5072808;28;20303;-80
2021/12/28 03:38:29;;;;;;;7.80;3.05;;;11.40;1.00;;;;;;5073473;28;20621;-80
2021/12/28 03:40:56;;;;;;;4.50;3.28;;;11.50;1.00;;;;;;5073063;28;20625;-76
2021/12/28 03:43:24;;;;;;;5.37;3.00;;;11.50;1.00;;;;;;5073112;28;20259;-76
2021/12/28 03:45:51;;;;;;;6.43;3.08;;;11.50;1.00;;;;;;5072840;28;20198;-76
2021/12/28 03:48:20;;;;;;;7.03;3.80;;;11.50;1.00;;;;;;5072429;28;20248;-76
2021/12/28 03:50:47;;;;;;;5.83;4.00;;;11.50;1.00;;;;;;5072559;28;20259;-76
2021/12/28 03:53:14;;;;;;;5.60;2.90;;;11.50;1.00;;;;;;5072731;28;20238;-76
2021/12/28 03:55:41;;;;;;;7.82;3.75;;;11.50;1.00;;;;;;5073048;28;20561;-76
2021/12/28 03:58:08;;;;;;;4.88;3.95;;;11.50;1.00;;;;;;5073196;28;20318;-79
2021/12/28 04:00:41;;;;;;;7.30;4.25;;;11.50;1.00;;;;;;5073043;28;20206;-79
2021/12/28 04:03:09;;;;;;;9.10;3.65;;;11.50;1.00;;;;;;5073335;28;20256;-77
2021/12/28 04:05:39;;;;;;;7.83;3.63;;;11.60;1.00;;;;;;5072851;28;20267;-76
2021/12/28 04:08:07;;;;;;;8.00;2.60;;;11.60;1.00;;;;;;5072444;28;20212;-78
2021/12/28 04:10:48;;;;;;;6.40;3.27;;;11.80;1.00;;;;;;5072787;28;20260;-76
2021/12/28 04:13:15;;;;;;;9.57;2.45;;;11.90;1.00;;;;;;5072544;28;20222;-76
2021/12/28 04:15:42;;;;;;;5.93;2.72;;;12.00;1.00;;;;;;5072014;28;20206;-77
2021/12/28 04:18:10;;;;;;;10.87;2.67;;;12.00;1.00;;;;;;5072496;28;20644;-77
2021/12/28 04:20:38;;;;;;;4.57;2.50;;;12.00;1.00;;;;;;5072896;28;20202;-77
2021/12/28 04:23:05;;;;;;;6.47;2.70;;;12.00;1.00;;;;;;5072072;28;20202;-76
2021/12/28 04:25:33;;;;;;;6.50;2.72;;;12.00;1.00;;;;;;5072327;28;20628;-77
2021/12/28 04:28:00;;;;;;;5.45;1.77;;;12.00;1.00;;;;;;5071900;28;20289;-78
2021/12/28 04:30:27;;;;;;;10.77;2.60;;;12.00;1.00;;;;;;5072055;28;20214;-78
2021/12/28 04:32:54;;;;;;;6.07;1.88;;;12.00;1.00;;;;;;5071590;28;20236;-77
2021/12/28 04:35:21;;;;;;;4.50;1.90;;;12.00;1.00;;;;;;5071985;28;20206;-78
2021/12/28 04:37:49;;;;;;;7.43;2.42;;;12.10;1.00;;;;;;5071720;28;20711;-77
2021/12/28 04:40:18;;;;;;;5.07;2.00;;;12.00;1.00;;;;;;5071760;28;20210;-77
2021/12/28 04:42:45;;;;;;;4.10;1.60;;;12.10;1.00;;;;;;5071523;28;20225;-76
2021/12/28 04:45:14;;;;;;;4.85;1.77;;;12.10;1.00;;;;;;5071886;28;20202;-76
2021/12/28 04:47:42;;;;;;;7.45;2.20;;;12.10;1.00;;;;;;5071775;28;20293;-76
2021/12/28 04:50:11;;;;;;;9.20;2.20;;;12.10;1.00;;;;;;5071824;28;20678;-75
2021/12/28 04:52:39;;;;;;;9.25;2.15;;;12.10;1.00;;;;;;5072091;28;20255;-76
2021/12/28 04:55:11;;;;;;;4.32;2.20;;;12.10;1.00;;;;;;5071457;28;20658;-77
2021/12/28 04:57:39;;;;;;;6.88;2.33;;;12.10;1.00;;;;;;5072154;28;20201;-77
2021/12/28 05:00:10;;;;;;;5.72;2.08;;;12.10;1.00;;;;;;5071384;28;20255;-79
2021/12/28 05:02:37;;;;;;;3.15;1.75;;;12.00;1.00;;;;;;5071829;28;20202;-80
2021/12/28 05:05:04;;;;;;;5.97;1.75;;;12.00;1.00;;;;;;5071508;28;20297;-74
2021/12/28 05:07:32;;;;;;;4.32;2.13;;;12.10;1.00;;;;;;5071463;28;20267;-75
2021/12/28 05:09:59;;;;;;;8.27;2.03;;;12.20;1.00;;;;;;5070889;28;20217;-75
2021/12/28 05:12:29;;;;;;;6.55;2.00;;;12.30;1.00;;;;;;5071367;28;20202;-75
2021/12/28 05:14:59;;;;;;;3.38;1.38;;;12.40;1.00;;;;;;5070586;28;20328;-76
2021/12/28 05:17:26;;;;;;;4.85;1.50;;;12.60;1.00;;;;;;5071571;28;20339;-75
2021/12/28 05:19:53;;;;;;;7.88;4.35;;;12.60;1.00;;;;;;5070856;28;20256;-76
2021/12/28 05:22:20;;;;;;;7.55;2.78;;;12.80;1.00;;;;;;5071064;28;20248;-76
2021/12/28 05:24:47;;;;;;;11.18;1.80;;;12.80;1.00;;;;;;5070742;28;20247;-76
2021/12/28 05:27:14;;;;;;;6.70;1.75;;;12.80;1.00;;;;;;5071211;28;20255;-76
2021/12/28 05:29:42;;;;;;;3.88;1.35;;;12.80;1.00;;;;;;5070719;28;20263;-75
2021/12/28 05:32:09;;;;;;;12.30;2.30;;;12.80;1.00;;;;;;5070999;28;20674;-75
2021/12/28 05:34:36;;;;;;;7.93;2.22;;;12.80;1.00;;;;;;5071102;28;20229;-75
2021/12/28 05:37:03;;;;;;;4.93;1.30;;;12.70;1.00;;;;;;5070686;28;20259;-75
2021/12/28 05:39:30;;;;;;;11.40;1.60;;;12.70;1.00;;;;;;5070618;28;20256;-75
2021/12/28 05:41:57;;;;;;;6.53;1.85;;;12.60;1.00;;;;;;5070390;28;20255;-75
2021/12/28 05:44:25;;;;;;;7.72;2.10;;;12.50;1.00;;;;;;5070768;28;20241;-75
2021/12/28 05:46:54;;;;;;;5.88;2.10;;;12.50;1.00;;;;;;5070379;28;20206;-75
2021/12/28 05:49:21;;;;;;;7.30;1.67;;;12.50;1.00;;;;;;5085144;28;20218;-74
2021/12/28 05:51:48;;;;;;;7.03;1.80;;;12.40;1.00;;;;;;5089107;28;20201;-75
2021/12/28 05:54:15;;;;;;;7.90;2.90;;;12.40;1.00;;;;;;5070305;28;20245;-76
2021/12/28 05:56:43;;;;;;;5.95;1.52;;;12.40;1.00;;;;;;5072148;28;20252;-76
2021/12/28 05:59:10;;;;;;;6.00;1.88;;;12.40;1.00;;;;;;5082010;28;20289;-76
2021/12/28 06:01:38;;;;;;;4.00;1.75;;;12.40;1.00;;;;;;5070687;28;20210;-78
2021/12/28 06:04:11;;;;;;;3.42;1.73;;;12.40;1.00;;;;;;5086500;28;20233;-79
2021/12/28 06:06:39;;;;;;;5.55;1.92;;;12.40;1.00;;;;;;5090842;28;20201;-77
2021/12/28 06:09:06;;;;;;;7.60;2.10;;;12.40;1.00;;;;;;5090809;28;20212;-77
2021/12/28 06:11:34;;;;;;;8.40;2.30;;;12.40;1.00;;;;;;5090381;28;20566;-76
2021/12/28 06:14:01;;;;;;;5.57;1.58;;;12.30;1.00;;;;;;5089824;28;20232;-76
2021/12/28 06:16:28;;;;;;;4.45;1.98;;;12.30;1.00;;;;;;5073192;28;20329;-76
2021/12/28 06:18:55;;;;;;;3.10;1.23;;;12.30;1.00;;;;;;5077744;28;20198;-75
2021/12/28 06:21:25;;;;;;;4.10;2.38;;;12.30;1.00;;;;;;5089863;28;20636;-76
2021/12/28 06:23:54;;;;;;;4.88;1.67;;;12.30;1.00;;;;;;5090170;28;20689;-77
2021/12/28 06:26:21;;;;;;;8.70;3.58;;;12.30;1.00;;;;;;5089890;28;20205;-76
2021/12/28 06:28:48;;;;;;;9.43;2.72;;;12.30;1.00;;;;;;5090523;28;20201;-76
2021/12/28 06:31:15;;;;;;;4.18;1.92;;;12.30;1.00;;;;;;5089215;28;20215;-77
2021/12/28 06:33:42;;;;;;;6.50;1.73;;;12.40;1.00;;;;;;5090518;28;20229;-77
2021/12/28 06:36:09;;;;;;;5.38;2.78;;;12.40;1.00;;;;;;5090423;28;20210;-77
2021/12/28 06:38:37;;;;;;;8.65;2.47;;;12.50;1.00;;;;;;5090125;28;20255;-77
2021/12/28 06:41:06;;;;;;;4.50;1.20;;;12.50;1.00;;;;;;5090297;28;20282;-77
2021/12/28 06:43:33;;;;;;;7.45;1.73;;;12.50;1.00;;;;;;5090262;28;20308;-77
2021/12/28 06:46:00;;;;;;;5.10;1.48;;;12.60;1.00;;;;;;5090315;28;20726;-77
2021/12/28 06:48:27;;;;;;;4.85;1.60;;;12.60;1.00;;;;;;5088729;28;20721;-77
2021/12/28 06:50:54;;;;;;;9.60;2.10;;;12.60;1.00;;;;;;5090181;28;20672;-77
2021/12/28 06:53:21;;;;;;;6.63;1.70;;;12.60;1.00;;;;;;5087176;28;20201;-77
2021/12/28 06:55:50;;;;;;;4.18;1.00;;;12.60;1.00;;;;;;5090082;28;20220;-77
2021/12/28 06:58:17;;;;;;;8.15;1.60;;;12.60;1.00;;;;;;5089433;28;20326;-77
2021/12/28 07:00:44;;;;;;;9.02;2.08;;;12.60;1.00;;;;;;5090197;28;20267;-77
2021/12/28 07:03:11;;;;;;;6.97;1.70;;;12.60;1.00;;;;;;5092442;28;20209;-77
2021/12/28 07:05:41;;;;;;;3.65;2.08;;;12.60;1.00;;;;;;5092988;28;20209;-77
2021/12/28 07:08:08;;;;;;;3.35;1.23;;;12.60;1.00;;;;;;5093915;28;20208;-77
2021/12/28 07:10:35;;;;;;;6.97;2.20;;;12.50;1.00;;;;;;5093360;28;20262;-77
2021/12/28 07:13:04;;;;;;;7.32;1.73;;;12.50;1.00;;;;;;5093707;28;20205;-76
2021/12/28 07:15:31;;;;;;;6.68;1.65;;;12.50;1.00;;;;;;5093430;28;20237;-76
2021/12/28 07:17:58;;;;;;;4.70;1.67;;;12.40;1.00;;;;;;5093549;28;20669;-77
2021/12/28 07:20:25;;;;;;;5.75;1.52;;;12.40;1.00;;;;;;5093091;28;20205;-76
2021/12/28 07:22:52;;;;;;;3.28;1.10;;;12.40;1.00;;;;;;5092253;28;20692;-77
2021/12/28 07:25:20;;;;;;;10.30;1.92;;;12.40;1.00;;;;;;5093341;28;20209;-76
2021/12/28 07:27:47;;;;;;;4.35;1.67;;;12.40;1.00;;;;;;5093200;28;20626;-78
2021/12/28 07:30:15;;;;;;;15.73;2.40;;;12.30;1.00;;;;;;5093102;28;20213;-76
2021/12/28 07:32:43;;;;;;;2.53;1.13;;;12.40;1.00;;;;;;5093269;28;20209;-77
2021/12/28 07:35:11;;;;;;;6.57;1.63;;;12.40;1.00;;;;;;5093610;28;20581;-77
2021/12/28 07:37:39;;;;;;;7.15;1.73;;;12.40;1.00;;;;;;5092933;28;20261;-76
2021/12/28 07:40:09;;;;;;;7.65;2.25;;;12.40;1.00;;;;;;5091990;28;20205;-77
2021/12/28 07:42:36;;;;;;;5.03;1.58;;;12.40;1.00;;;;;;5092928;28;20210;-77
2021/12/28 07:45:04;;;;;;;3.03;1.30;;;12.50;1.00;;;;;;5092834;28;20213;-77
2021/12/28 07:47:32;;;;;;;8.30;1.77;;;12.50;1.00;;;;;;5092589;28;20201;-77
2021/12/28 07:49:59;;;;;;;5.50;1.50;;;12.50;1.00;;;;;;5092705;28;20205;-76
2021/12/28 07:52:26;;;;;;;7.32;1.58;;;12.50;1.00;;;;;;5086957;28;20745;-77
2021/12/28 07:54:54;;;;;;;13.10;3.58;;;12.60;1.00;;;;;;5092780;28;20238;-76
2021/12/28 07:57:21;;;;;;;6.53;1.60;;;12.60;1.00;;;;;;5089457;28;20216;-76
2021/12/28 07:59:49;;;;;;;3.47;1.23;;;12.60;1.00;;;;;;5083893;28;20232;-76
2021/12/28 08:02:16;;;;;;;3.95;1.20;;;12.70;1.00;;;;;;5085929;28;20205;-76
2021/12/28 08:04:44;;;;;;;6.97;1.23;;;12.70;1.00;;;;;;5082027;28;20209;-75
2021/12/28 08:07:11;;;;;;;4.43;1.60;;;12.80;1.00;;;;;;5091202;28;20201;-77
2021/12/28 08:09:38;;;;;;;5.25;1.65;;;12.80;1.00;;;;;;5092788;28;20205;-76
2021/12/28 08:12:06;;;;;;;4.30;1.08;;;12.80;1.00;;;;;;5085492;28;20218;-75
2021/12/28 08:14:33;;;;;;;5.82;1.63;;;12.90;1.00;;;;;;5071269;28;20303;-78
2021/12/28 08:17:00;;;;;;;6.35;3.70;;;12.90;1.00;;;;;;5072702;28;20323;-76
2021/12/28 08:19:27;;;;;;;8.63;1.45;;;12.90;1.00;;;;;;5080106;28;20206;-75
2021/12/28 08:21:55;;;;;;;5.40;1.90;;;13.00;1.00;;;;;;5082046;28;20201;-75
2021/12/28 08:24:22;;;;;;;8.38;2.58;;;13.00;1.00;;;;;;5082596;28;20270;-75
2021/12/28 08:26:49;;;;;;;6.13;2.13;;;13.00;1.00;;;;;;5091443;28;20665;-76
2021/12/28 08:29:16;;;;;;;5.32;1.63;;;13.10;1.00;;;;;;5083662;28;20263;-77
2021/12/28 08:31:43;;;;;;;6.60;1.55;;;13.10;1.00;;;;;;5091934;28;20206;-77
2021/12/28 08:34:10;;;;;;;7.88;1.85;;;13.10;1.00;;;;;;5091855;28;20233;-75
2021/12/28 08:36:37;;;;;;;6.53;1.80;;;13.20;1.00;;;;;;5091126;28;20201;-76
2021/12/28 08:39:06;;;;;;;6.05;2.53;;;13.20;1.00;;;;;;5091668;28;20202;-76
2021/12/28 08:41:33;;;;;;;8.90;3.25;;;13.20;1.00;;;;;;5078262;28;20256;-77
2021/12/28 08:44:00;;;;;;;10.50;2.40;;;13.20;1.00;;;;;;5081507;28;20263;-77
2021/12/28 08:46:29;;;;;;;3.65;1.38;;;13.20;1.00;;;;;;5091715;28;20206;-78
2021/12/28 08:48:56;;;;;;;6.40;2.80;;;13.10;1.00;;;;;;5092108;28;20215;-77
2021/12/28 08:51:23;;;;;;;7.45;2.22;;;13.20;1.00;;;;;;5091596;28;20258;-75
2021/12/28 08:53:51;;;;;;;6.43;1.98;;;13.20;1.00;;;;;;5089277;28;20201;-79
2021/12/28 08:56:19;;;;;;;4.57;2.05;;;13.20;1.00;;;;;;5085301;28;20201;-79
2021/12/28 08:58:46;;;;;;;6.63;2.17;;;13.30;1.00;;;;;;5076977;28;20206;-80
2021/12/28 09:01:13;;;;;;;8.77;3.47;;;13.30;1.00;;;;;;5086304;28;20258;-78
2021/12/28 09:03:40;;;;;;;5.63;1.27;;;13.30;1.00;;;;;;5078348;28;20292;-74
2021/12/28 09:06:07;;;;;;;4.78;1.60;;;13.40;1.00;;;;;;5079656;28;20202;-79
2021/12/28 09:08:34;;;;;;;4.43;1.75;;;13.40;1.00;;;;;;5086662;28;20202;-78
2021/12/28 09:11:02;;;;;;;2.75;1.17;;;13.50;1.00;;;;;;5084372;28;20202;-74
2021/12/28 09:13:30;;;;;;;8.05;1.77;;;13.50;1.00;;;;;;5072937;28;20205;-74
2021/12/28 09:15:57;;;;;;;5.30;1.67;;;13.60;1.00;;;;;;5080485;28;20659;-75
2021/12/28 09:18:24;;;;;;;5.30;1.60;;;13.60;1.00;;;;;;5087663;28;20260;-74
2021/12/28 09:20:51;;;;;;;2.55;1.77;;;13.70;1.00;;;;;;5091112;28;20206;-74
2021/12/28 09:23:18;;;;;;;5.50;2.17;;;13.70;1.00;;;;;;5090822;28;20202;-73
2021/12/28 09:25:45;;;;;;;6.88;2.17;;;13.70;1.00;;;;;;5088363;28;20279;-75
2021/12/28 09:28:12;;;;;;;8.93;2.13;;;13.80;1.00;;;;;;5079714;28;20259;-74
2021/12/28 09:30:43;;;;;;;3.65;1.77;;;13.80;1.00;;;;;;5080069;28;20211;-75
2021/12/28 09:33:11;;;;;;;7.30;2.17;;;13.90;1.00;;;;;;5086055;28;20201;-75
2021/12/28 09:35:38;;;;;;;8.55;2.95;;;14.00;1.00;;;;;;5090037;28;20332;-76
2021/12/28 09:38:06;;;;;;;7.28;2.83;;;14.10;1.00;;;;;;5081067;28;20206;-76
2021/12/28 09:40:34;;;;;;;5.63;2.75;;;14.30;1.00;;;;;;5078718;28;20209;-75
2021/12/28 09:43:02;;;;;;;6.50;2.15;;;14.60;1.00;;;;;;5077964;28;20236;-74
2021/12/28 09:45:29;;;;;;;7.10;2.40;;;14.80;1.00;;;;;;5080675;28;20205;-74
2021/12/28 09:47:58;;;;;;;6.47;1.80;;;15.20;1.00;;;;;;5080694;28;20221;-74
2021/12/28 09:50:25;;;;;;;9.20;2.20;;;15.80;1.00;;;;;;5088191;28;20673;-74
2021/12/28 09:52:53;;;;;;;2.63;1.38;;;15.60;1.00;;;;;;5090928;28;20282;-76
2021/12/28 09:55:23;;;;;;;8.40;1.90;;;15.20;1.00;;;;;;5089755;28;20225;-77
2021/12/28 09:57:51;;;;;;;3.78;1.85;;;15.00;1.00;;;;;;5090798;28;20266;-78
2021/12/28 10:00:21;;;;;;;8.13;2.03;;;14.80;1.00;;;;;;5089075;28;20734;-76
2021/12/28 10:02:48;;;;;;;4.57;1.48;;;14.80;1.00;;;;;;5090294;28;20738;-76
2021/12/28 10:05:20;;;;;;;6.70;1.52;;;15.20;1.00;;;;;;5090591;28;20217;-76
2021/12/28 10:07:54;;;;;;;4.95;1.45;;;15.60;1.00;;;;;;5090751;28;20304;-76
2021/12/28 10:10:22;;;;;;;5.47;1.58;;;16.20;1.00;;;;;;5083600;28;20305;-78
2021/12/28 10:12:52;;;;;;;4.65;1.17;;;19.00;1.00;;;;;;5070690;28;20205;-77
2021/12/28 10:15:22;;;;;;;3.67;1.33;;;20.80;1.00;;;;;;5068637;28;20238;-77
2021/12/28 10:17:51;;;;;;;6.55;2.05;;;22.10;1.00;;;;;;5070512;28;20206;-78
2021/12/28 10:20:22;;;;;;;5.68;2.15;;;21.50;1.00;;;;;;5070178;28;20206;-78
2021/12/28 10:22:53;;;;;;;2.85;1.25;;;19.20;1.00;;;;;;5070878;28;20264;-81
2021/12/28 10:25:23;;;;;;;7.38;1.95;;;18.40;1.00;;;;;;5070175;28;20662;-80
2021/12/28 10:27:52;;;;;;;4.43;2.00;;;17.60;1.00;;;;;;5070486;28;20202;-79
2021/12/28 10:30:23;;;;;;;5.72;2.17;;;17.10;1.00;;;;;;5069889;28;20275;-80
2021/12/28 10:32:52;;;;;;;2.75;1.50;;;16.80;1.00;;;;;;5069967;28;20202;-79
2021/12/28 10:35:22;;;;;;;6.35;3.15;;;16.40;1.00;;;;;;5070109;28;20241;-79
2021/12/28 10:37:51;;;;;;;4.50;1.95;;;16.30;1.00;;;;;;5071195;28;20206;-79
2021/12/28 10:40:25;;;;;;;5.32;2.22;;;16.10;1.00;;;;;;5072061;28;20201;-78
2021/12/28 10:42:56;;;;;;;4.68;1.10;;;16.10;1.00;;;;;;5073590;28;20609;-78
2021/12/28 10:45:25;;;;;;;6.60;2.33;;;16.20;1.00;;;;;;5073598;28;20275;-79
2021/12/28 10:47:54;;;;;;;3.08;1.48;;;16.50;1.00;;;;;;5074247;28;20251;-79
2021/12/28 10:50:26;;;;;;;5.97;1.63;;;16.60;1.00;;;;;;5073637;28;20210;-79
2021/12/28 10:53:19;;;;;;;5.55;1.77;;;16.70;1.00;;;;;;5074129;28;20674;-79
2021/12/28 10:55:48;;;;;;;7.38;1.25;;;16.50;1.00;;;;;;5073935;28;20237;-78
2021/12/28 10:58:28;;;;;;;4.82;1.35;;;16.20;1.00;;;;;;5072900;28;20283;-76
2021/12/28 11:00:56;;;;;;;9.95;2.30;;;16.10;1.00;;;;;;5071751;28;20751;-78
2021/12/28 11:03:33;;;;;;;7.00;2.60;;;15.90;1.00;;;;;;5073797;28;20217;-77
2021/12/28 11:06:10;;;;;;;5.15;1.30;;;15.80;1.00;;;;;;5072602;28;20297;-76
2021/12/28 11:08:38;;;;;;;3.38;1.98;;;15.70;1.00;;;;;;5073417;28;20206;-79
2021/12/28 11:11:08;;;;;;;6.97;1.70;;;15.50;1.00;;;;;;5074087;28;20627;-78
2021/12/28 11:13:35;;;;;;;7.95;2.03;;;15.30;1.00;;;;;;5073174;28;20721;-77
2021/12/28 11:16:04;;;;;;;5.60;1.15;;;15.20;1.00;;;;;;5073529;28;20230;-78
2021/12/28 11:18:34;;;;;;;6.32;1.77;;;14.90;1.00;;;;;;5073328;28;20223;-76
2021/12/28 11:21:11;;;;;;;4.35;2.47;;;14.70;1.00;;;;;;5073626;28;20234;-75
2021/12/28 11:23:38;;;;;;;8.98;1.60;;;14.40;1.00;;;;;;5073407;28;20259;-75
2021/12/28 11:26:10;;;;;;;5.00;1.10;;;14.40;1.00;;;;;;5073886;28;20210;-76
2021/12/28 11:28:39;;;;;;;5.40;1.83;;;14.20;1.00;;;;;;5071992;28;20260;-75
2021/12/28 11:31:11;;;;;;;8.05;1.40;;;14.10;1.00;;;;;;5073000;28;20247;-77
2021/12/28 11:33:49;;;;;;;3.67;1.70;;;14.00;1.00;;;;;;5074663;28;20608;-77
2021/12/28 11:36:20;;;;;;;5.18;1.38;;;14.20;1.00;;;;;;5088096;28;20237;-74
2021/12/28 11:38:47;;;;;;;4.18;1.30;;;14.30;1.00;;;;;;5093386;28;20252;-76
2021/12/28 11:41:15;;;;;;;6.68;1.67;;;14.40;1.00;;;;;;5092942;28;20251;-75
2021/12/28 11:43:44;;;;;;;4.95;2.20;;;14.40;1.00;;;;;;5087900;28;20255;-75
2021/12/28 11:46:12;;;;;;;5.65;1.70;;;14.30;1.00;;;;;;5084905;28;20201;-75
2021/12/28 11:48:40;;;;;;;11.98;3.05;;;14.30;1.00;;;;;;5091847;28;20610;-77
2021/12/28 11:51:08;;;;;;;6.60;2.63;;;14.10;1.00;;;;;;5073181;28;20289;-78
2021/12/28 11:53:40;;;;;;;7.00;3.60;;;14.00;1.00;;;;;;5074808;28;20210;-79
2021/12/28 11:56:09;;;;;;;7.80;3.17;;;13.90;1.00;;;;;;5086872;28;20310;-78
2021/12/28 11:59:01;;;;;;;8.40;4.05;;;13.90;1.00;;;;;;5087515;28;20206;-76
2021/12/28 12:01:40;;;;;;;7.65;3.83;;;14.00;1.00;;;;;;5082124;28;20681;-77
2021/12/28 12:04:45;;;;;;;6.45;1.98;;;14.10;1.00;;;;;;5091567;28;20211;-75
2021/12/28 12:07:20;;;;;;;6.78;2.17;;;14.20;1.00;;;;;;5082069;28;20215;-77
2021/12/28 12:10:15;;;;;;;4.07;2.22;;;14.40;1.00;;;;;;5079566;28;20209;-77
2021/12/28 12:12:48;;;;;;;6.15;2.10;;;14.50;1.00;;;;;;5084621;28;20726;-77
2021/12/28 12:15:15;;;;;;;7.53;1.85;;;14.70;1.00;;;;;;5083266;28;20283;-77
2021/12/28 12:17:44;;;;;;;6.22;1.75;;;14.70;1.00;;;;;;5090663;28;20206;-77
2021/12/28 12:20:30;;;;;;;5.40;2.25;;;14.80;1.00;;;;;;5082747;28;20297;-78
2021/12/28 12:23:09;;;;;;;5.05;1.75;;;14.60;1.00;;;;;;5082726;28;20220;-77
2021/12/28 12:25:57;;;;;;;5.25;1.83;;;14.50;1.00;;;;;;5079174;28;20218;-78
2021/12/28 12:28:41;;;;;;;8.93;2.90;;;14.40;1.00;;;;;;5070398;28;20242;-78
2021/12/28 12:31:11;;;;;;;6.90;2.35;;;14.20;1.00;;;;;;5072200;28;20216;-78
2021/12/28 12:33:41;;;;;;;4.97;1.45;;;14.10;1.00;;;;;;5071855;28;20987;-79
2021/12/28 12:36:17;;;;;;;7.35;1.52;;;14.10;1.00;;;;;;5072306;28;20656;-75
2021/12/28 12:38:44;;;;;;;3.60;2.05;;;14.10;1.00;;;;;;5072135;28;20259;-75
2021/12/28 12:41:16;;;;;;;6.35;1.83;;;14.10;1.00;;;;;;5072238;28;20267;-78
2021/12/28 12:43:53;;;;;;;9.70;2.15;;;13.90;1.00;;;;;;5072311;28;20693;-75
2021/12/28 12:46:32;;;;;;;7.47;2.42;;;14.00;1.00;;;;;;5071542;28;20263;-79
2021/12/28 12:49:10;;;;;;;6.15;2.30;;;14.10;1.00;;;;;;5071814;28;20214;-77
2021/12/28 12:51:44;;;;;;;9.95;2.13;;;14.20;1.00;;;;;;5071568;28;20218;-78
2021/12/28 12:54:19;;;;;;;5.75;2.95;;;14.10;1.00;;;;;;5071906;28;20198;-75
2021/12/28 12:57:14;;;;;;;7.85;3.97;;;14.20;1.00;;;;;;5071304;28;20773;-78
2021/12/28 12:59:47;;;;;;;4.35;2.70;;;14.20;1.00;;;;;;5071742;28;20739;-77
2021/12/28 13:02:24;;;;;;;10.00;3.00;;;14.20;1.00;;;;;;5071472;28;20206;-76
2021/12/28 13:04:54;;;;;;;4.80;2.55;;;14.20;1.00;;;;;;5087123;28;20262;-75